sensor_id;sensor_type;location;lat;lon;timestamp;P1;durP1;ratioP1;P2;durP2;ratioP2
19800;SDS011;10060;48.274;12.214;2023-05-31T00:02:14;4.20;;;2.70;;
19800;SDS011;10060;48.274;12.214;2023-05-31T00:05:17;5.22;;;3.00;;
19800;SDS011;10060;48.274;12.214;2023-05-31T00:08:19;6.57;;;2.90;;
19800;SDS011;10060;48.274;12.214;2023-05-31T00:11:21;5.85;;;3.42;;
19800;SDS011;10060;48.274;12.214;2023-05-31T00:14:25;6.00;;;2.83;;
19800;SDS011;10060;48.274;12.214;2023-05-31T00:17:27;7.70;;;2.60;;
19800;SDS011;10060;48.274;12.214;2023-05-31T00:20:31;6.57;;;2.60;;
19800;SDS011;10060;48.274;12.214;2023-05-31T00:23:33;7.13;;;3.20;;
19800;SDS011;10060;48.274;12.214;2023-05-31T00:26:35;4.43;;;2.63;;
19800;SDS011;10060;48.274;12.214;2023-05-31T00:29:37;5.30;;;2.33;;
19800;SDS011;10060;48.274;12.214;2023-05-31T00:32:39;6.20;;;3.13;;
19800;SDS011;10060;48.274;12.214;2023-05-31T00:35:43;7.18;;;3.15;;
19800;SDS011;10060;48.274;12.214;2023-05-31T00:38:45;5.50;;;2.55;;
19800;SDS011;10060;48.274;12.214;2023-05-31T00:41:47;6.45;;;2.55;;
19800;SDS011;10060;48.274;12.214;2023-05-31T00:44:49;5.07;;;3.13;;
19800;SDS011;10060;48.274;12.214;2023-05-31T00:47:51;8.75;;;3.25;;
19800;SDS011;10060;48.274;12.214;2023-05-31T00:50:55;6.40;;;2.70;;
19800;SDS011;10060;48.274;12.214;2023-05-31T00:53:57;6.40;;;2.80;;
19800;SDS011;10060;48.274;12.214;2023-05-31T00:57:00;5.38;;;2.83;;
19800;SDS011;10060;48.274;12.214;2023-05-31T01:00:02;5.47;;;2.80;;
19800;SDS011;10060;48.274;12.214;2023-05-31T01:03:05;5.50;;;2.85;;
19800;SDS011;10060;48.274;12.214;2023-05-31T01:06:10;5.18;;;2.90;;
19800;SDS011;10060;48.274;12.214;2023-05-31T01:09:12;8.55;;;3.22;;
19800;SDS011;10060;48.274;12.214;2023-05-31T01:12:16;4.00;;;2.25;;
19800;SDS011;10060;48.274;12.214;2023-05-31T01:15:22;7.63;;;2.70;;
19800;SDS011;10060;48.274;12.214;2023-05-31T01:18:27;6.38;;;2.88;;
19800;SDS011;10060;48.274;12.214;2023-05-31T01:21:48;5.95;;;2.72;;
19800;SDS011;10060;48.274;12.214;2023-05-31T01:25:14;6.57;;;3.08;;
19800;SDS011;10060;48.274;12.214;2023-05-31T01:28:23;3.15;;;2.72;;
19800;SDS011;10060;48.274;12.214;2023-05-31T01:31:26;7.00;;;3.10;;
19800;SDS011;10060;48.274;12.214;2023-05-31T01:34:29;7.28;;;3.25;;
19800;SDS011;10060;48.274;12.214;2023-05-31T01:37:31;6.10;;;3.13;;
19800;SDS011;10060;48.274;12.214;2023-05-31T01:40:33;4.78;;;2.85;;
19800;SDS011;10060;48.274;12.214;2023-05-31T01:43:39;5.10;;;3.08;;
19800;SDS011;10060;48.274;12.214;2023-05-31T01:46:42;7.07;;;3.15;;
19800;SDS011;10060;48.274;12.214;2023-05-31T01:49:44;6.47;;;2.92;;
19800;SDS011;10060;48.274;12.214;2023-05-31T01:52:47;8.07;;;3.00;;
19800;SDS011;10060;48.274;12.214;2023-05-31T01:55:49;6.27;;;3.20;;
19800;SDS011;10060;48.274;12.214;2023-05-31T01:58:53;4.40;;;2.63;;
19800;SDS011;10060;48.274;12.214;2023-05-31T02:01:56;4.45;;;2.80;;
19800;SDS011;10060;48.274;12.214;2023-05-31T02:05:04;6.00;;;2.83;;
19800;SDS011;10060;48.274;12.214;2023-05-31T02:08:08;5.00;;;2.83;;
19800;SDS011;10060;48.274;12.214;2023-05-31T02:11:10;7.78;;;3.20;;
19800;SDS011;10060;48.274;12.214;2023-05-31T02:14:13;5.53;;;3.60;;
19800;SDS011;10060;48.274;12.214;2023-05-31T02:17:15;5.83;;;2.93;;
19800;SDS011;10060;48.274;12.214;2023-05-31T02:20:18;7.50;;;2.73;;
19800;SDS011;10060;48.274;12.214;2023-05-31T02:23:20;6.20;;;2.90;;
19800;SDS011;10060;48.274;12.214;2023-05-31T02:26:22;6.80;;;3.03;;
19800;SDS011;10060;48.274;12.214;2023-05-31T02:29:26;7.32;;;3.22;;
19800;SDS011;10060;48.274;12.214;2023-05-31T02:32:28;6.40;;;3.97;;
19800;SDS011;10060;48.274;12.214;2023-05-31T02:35:31;4.27;;;2.83;;
19800;SDS011;10060;48.274;12.214;2023-05-31T02:38:33;6.27;;;3.20;;
19800;SDS011;10060;48.274;12.214;2023-05-31T02:41:35;4.30;;;2.83;;
19800;SDS011;10060;48.274;12.214;2023-05-31T02:44:38;5.23;;;2.67;;
19800;SDS011;10060;48.274;12.214;2023-05-31T02:47:41;5.97;;;3.37;;
19800;SDS011;10060;48.274;12.214;2023-05-31T02:50:43;7.10;;;3.03;;
19800;SDS011;10060;48.274;12.214;2023-05-31T02:53:45;5.43;;;3.10;;
19800;SDS011;10060;48.274;12.214;2023-05-31T02:56:47;4.47;;;2.60;;
19800;SDS011;10060;48.274;12.214;2023-05-31T02:59:54;5.20;;;3.20;;
19800;SDS011;10060;48.274;12.214;2023-05-31T03:02:56;5.63;;;3.23;;
19800;SDS011;10060;48.274;12.214;2023-05-31T03:05:58;4.77;;;2.97;;
19800;SDS011;10060;48.274;12.214;2023-05-31T03:09:01;7.77;;;3.10;;
19800;SDS011;10060;48.274;12.214;2023-05-31T03:12:04;7.57;;;3.30;;
19800;SDS011;10060;48.274;12.214;2023-05-31T03:15:09;8.33;;;2.93;;
19800;SDS011;10060;48.274;12.214;2023-05-31T03:18:11;5.47;;;3.10;;
19800;SDS011;10060;48.274;12.214;2023-05-31T03:21:13;4.23;;;3.17;;
19800;SDS011;10060;48.274;12.214;2023-05-31T03:24:16;5.47;;;3.30;;
19800;SDS011;10060;48.274;12.214;2023-05-31T03:27:18;5.73;;;3.40;;
19800;SDS011;10060;48.274;12.214;2023-05-31T03:30:21;6.13;;;2.83;;
19800;SDS011;10060;48.274;12.214;2023-05-31T03:33:23;4.87;;;2.90;;
19800;SDS011;10060;48.274;12.214;2023-05-31T03:36:25;5.60;;;3.10;;
19800;SDS011;10060;48.274;12.214;2023-05-31T03:39:27;10.57;;;3.27;;
19800;SDS011;10060;48.274;12.214;2023-05-31T03:42:30;6.53;;;2.80;;
19800;SDS011;10060;48.274;12.214;2023-05-31T03:45:33;7.90;;;2.67;;
19800;SDS011;10060;48.274;12.214;2023-05-31T03:48:35;5.43;;;2.67;;
19800;SDS011;10060;48.274;12.214;2023-05-31T03:51:37;5.77;;;2.90;;
19800;SDS011;10060;48.274;12.214;2023-05-31T03:54:39;4.90;;;2.97;;
19800;SDS011;10060;48.274;12.214;2023-05-31T03:57:42;5.73;;;3.37;;
19800;SDS011;10060;48.274;12.214;2023-05-31T04:00:45;6.83;;;3.17;;
19800;SDS011;10060;48.274;12.214;2023-05-31T04:03:47;6.37;;;3.03;;
19800;SDS011;10060;48.274;12.214;2023-05-31T04:06:49;4.67;;;2.87;;
19800;SDS011;10060;48.274;12.214;2023-05-31T04:09:51;6.77;;;3.40;;
19800;SDS011;10060;48.274;12.214;2023-05-31T04:12:54;8.80;;;3.00;;
19800;SDS011;10060;48.274;12.214;2023-05-31T04:15:57;5.83;;;2.97;;
19800;SDS011;10060;48.274;12.214;2023-05-31T04:18:59;4.90;;;3.00;;
19800;SDS011;10060;48.274;12.214;2023-05-31T04:22:01;4.57;;;3.10;;
19800;SDS011;10060;48.274;12.214;2023-05-31T04:25:03;6.07;;;3.60;;
19800;SDS011;10060;48.274;12.214;2023-05-31T04:28:06;6.50;;;2.88;;
19800;SDS011;10060;48.274;12.214;2023-05-31T04:31:09;7.30;;;3.10;;
19800;SDS011;10060;48.274;12.214;2023-05-31T04:34:11;5.33;;;3.00;;
19800;SDS011;10060;48.274;12.214;2023-05-31T04:37:19;7.35;;;2.83;;
19800;SDS011;10060;48.274;12.214;2023-05-31T04:40:21;4.65;;;2.95;;
19800;SDS011;10060;48.274;12.214;2023-05-31T04:43:23;7.38;;;3.10;;
19800;SDS011;10060;48.274;12.214;2023-05-31T04:46:27;6.43;;;3.20;;
19800;SDS011;10060;48.274;12.214;2023-05-31T04:49:29;8.13;;;3.13;;
19800;SDS011;10060;48.274;12.214;2023-05-31T04:52:31;7.73;;;3.40;;
19800;SDS011;10060;48.274;12.214;2023-05-31T04:55:33;6.93;;;3.43;;
19800;SDS011;10060;48.274;12.214;2023-05-31T04:58:35;3.60;;;2.87;;
19800;SDS011;10060;48.274;12.214;2023-05-31T05:01:39;5.10;;;3.20;;
19800;SDS011;10060;48.274;12.214;2023-05-31T05:04:41;9.20;;;3.87;;
19800;SDS011;10060;48.274;12.214;2023-05-31T05:07:43;4.43;;;2.70;;
19800;SDS011;10060;48.274;12.214;2023-05-31T05:10:45;4.83;;;2.63;;
19800;SDS011;10060;48.274;12.214;2023-05-31T05:13:47;5.03;;;3.30;;
19800;SDS011;10060;48.274;12.214;2023-05-31T05:16:50;4.37;;;3.13;;
19800;SDS011;10060;48.274;12.214;2023-05-31T05:19:52;5.17;;;2.53;;
19800;SDS011;10060;48.274;12.214;2023-05-31T05:22:54;4.77;;;2.97;;
19800;SDS011;10060;48.274;12.214;2023-05-31T05:25:56;6.80;;;2.90;;
19800;SDS011;10060;48.274;12.214;2023-05-31T05:28:59;8.82;;;3.95;;
19800;SDS011;10060;48.274;12.214;2023-05-31T05:32:02;7.35;;;2.97;;
19800;SDS011;10060;48.274;12.214;2023-05-31T05:35:05;7.93;;;3.33;;
19800;SDS011;10060;48.274;12.214;2023-05-31T05:38:08;3.90;;;2.60;;
19800;SDS011;10060;48.274;12.214;2023-05-31T05:41:10;4.32;;;2.67;;
19800;SDS011;10060;48.274;12.214;2023-05-31T05:44:12;6.57;;;2.63;;
19800;SDS011;10060;48.274;12.214;2023-05-31T05:47:15;6.22;;;3.10;;
19800;SDS011;10060;48.274;12.214;2023-05-31T05:50:17;5.95;;;2.90;;
19800;SDS011;10060;48.274;12.214;2023-05-31T05:53:20;5.15;;;2.85;;
19800;SDS011;10060;48.274;12.214;2023-05-31T05:56:22;5.28;;;2.70;;
19800;SDS011;10060;48.274;12.214;2023-05-31T05:59:24;6.03;;;3.35;;
19800;SDS011;10060;48.274;12.214;2023-05-31T06:02:27;7.57;;;3.22;;
19800;SDS011;10060;48.274;12.214;2023-05-31T06:05:29;5.78;;;3.50;;
19800;SDS011;10060;48.274;12.214;2023-05-31T06:08:31;6.78;;;2.65;;
19800;SDS011;10060;48.274;12.214;2023-05-31T06:11:33;5.80;;;2.75;;
19800;SDS011;10060;48.274;12.214;2023-05-31T06:14:36;6.45;;;2.90;;
19800;SDS011;10060;48.274;12.214;2023-05-31T06:17:39;9.18;;;3.35;;
19800;SDS011;10060;48.274;12.214;2023-05-31T06:20:41;12.00;;;3.55;;
19800;SDS011;10060;48.274;12.214;2023-05-31T06:23:43;6.25;;;2.80;;
19800;SDS011;10060;48.274;12.214;2023-05-31T06:26:45;6.65;;;3.30;;
19800;SDS011;10060;48.274;12.214;2023-05-31T06:29:47;13.13;;;3.15;;
19800;SDS011;10060;48.274;12.214;2023-05-31T06:32:56;4.95;;;2.65;;
19800;SDS011;10060;48.274;12.214;2023-05-31T06:35:58;8.18;;;3.38;;
19800;SDS011;10060;48.274;12.214;2023-05-31T06:39:00;7.07;;;2.72;;
19800;SDS011;10060;48.274;12.214;2023-05-31T06:42:02;6.20;;;2.95;;
19800;SDS011;10060;48.274;12.214;2023-05-31T06:45:05;9.65;;;3.40;;
19800;SDS011;10060;48.274;12.214;2023-05-31T06:48:09;4.07;;;2.55;;
19800;SDS011;10060;48.274;12.214;2023-05-31T06:51:11;8.73;;;3.67;;
19800;SDS011;10060;48.274;12.214;2023-05-31T06:54:14;5.07;;;2.67;;
19800;SDS011;10060;48.274;12.214;2023-05-31T06:57:16;7.32;;;2.72;;
19800;SDS011;10060;48.274;12.214;2023-05-31T07:00:18;7.35;;;3.15;;
19800;SDS011;10060;48.274;12.214;2023-05-31T07:03:22;6.85;;;3.53;;
19800;SDS011;10060;48.274;12.214;2023-05-31T07:06:24;6.93;;;2.58;;
19800;SDS011;10060;48.274;12.214;2023-05-31T07:09:26;4.25;;;2.90;;
19800;SDS011;10060;48.274;12.214;2023-05-31T07:12:28;6.35;;;2.90;;
19800;SDS011;10060;48.274;12.214;2023-05-31T07:15:30;4.93;;;2.70;;
19800;SDS011;10060;48.274;12.214;2023-05-31T07:18:34;10.45;;;3.65;;
19800;SDS011;10060;48.274;12.214;2023-05-31T07:21:36;5.53;;;2.80;;
19800;SDS011;10060;48.274;12.214;2023-05-31T07:24:38;7.30;;;3.13;;
19800;SDS011;10060;48.274;12.214;2023-05-31T07:27:40;6.30;;;2.58;;
19800;SDS011;10060;48.274;12.214;2023-05-31T07:30:42;7.70;;;2.97;;
19800;SDS011;10060;48.274;12.214;2023-05-31T07:33:46;5.45;;;2.80;;
19800;SDS011;10060;48.274;12.214;2023-05-31T07:36:48;7.70;;;3.40;;
19800;SDS011;10060;48.274;12.214;2023-05-31T07:39:50;9.90;;;3.17;;
19800;SDS011;10060;48.274;12.214;2023-05-31T07:42:52;7.28;;;2.90;;
19800;SDS011;10060;48.274;12.214;2023-05-31T07:45:55;8.73;;;2.90;;
19800;SDS011;10060;48.274;12.214;2023-05-31T07:48:59;6.50;;;2.97;;
19800;SDS011;10060;48.274;12.214;2023-05-31T07:52:01;5.03;;;2.75;;
19800;SDS011;10060;48.274;12.214;2023-05-31T07:55:05;6.22;;;2.53;;
19800;SDS011;10060;48.274;12.214;2023-05-31T07:58:07;6.65;;;2.55;;
19800;SDS011;10060;48.274;12.214;2023-05-31T08:01:10;6.20;;;3.10;;
19800;SDS011;10060;48.274;12.214;2023-05-31T08:04:14;8.65;;;2.83;;
19800;SDS011;10060;48.274;12.214;2023-05-31T08:07:16;3.40;;;2.30;;
19800;SDS011;10060;48.274;12.214;2023-05-31T08:10:18;11.18;;;3.28;;
19800;SDS011;10060;48.274;12.214;2023-05-31T08:13:20;6.32;;;2.78;;
19800;SDS011;10060;48.274;12.214;2023-05-31T08:16:24;6.40;;;3.30;;
19800;SDS011;10060;48.274;12.214;2023-05-31T08:19:27;10.05;;;2.85;;
19800;SDS011;10060;48.274;12.214;2023-05-31T08:22:29;6.45;;;2.75;;
19800;SDS011;10060;48.274;12.214;2023-05-31T08:25:31;10.35;;;3.42;;
19800;SDS011;10060;48.274;12.214;2023-05-31T08:28:34;5.63;;;2.60;;
19800;SDS011;10060;48.274;12.214;2023-05-31T08:31:36;5.60;;;2.85;;
19800;SDS011;10060;48.274;12.214;2023-05-31T08:34:39;6.70;;;3.13;;
19800;SDS011;10060;48.274;12.214;2023-05-31T08:37:43;6.90;;;2.70;;
19800;SDS011;10060;48.274;12.214;2023-05-31T08:40:46;3.85;;;2.58;;
19800;SDS011;10060;48.274;12.214;2023-05-31T08:43:48;20.35;;;3.70;;
19800;SDS011;10060;48.274;12.214;2023-05-31T08:46:50;7.18;;;2.55;;
19800;SDS011;10060;48.274;12.214;2023-05-31T08:49:54;10.23;;;2.97;;
19800;SDS011;10060;48.274;12.214;2023-05-31T08:52:57;5.57;;;2.60;;
19800;SDS011;10060;48.274;12.214;2023-05-31T08:56:00;12.88;;;3.55;;
19800;SDS011;10060;48.274;12.214;2023-05-31T08:59:02;7.72;;;2.60;;
19800;SDS011;10060;48.274;12.214;2023-05-31T09:02:04;7.75;;;2.80;;
19800;SDS011;10060;48.274;12.214;2023-05-31T09:05:09;6.57;;;2.90;;
19800;SDS011;10060;48.274;12.214;2023-05-31T09:08:12;7.47;;;3.38;;
19800;SDS011;10060;48.274;12.214;2023-05-31T09:11:14;6.25;;;3.15;;
19800;SDS011;10060;48.274;12.214;2023-05-31T09:14:17;10.15;;;3.53;;
19800;SDS011;10060;48.274;12.214;2023-05-31T09:17:19;6.10;;;2.60;;
19800;SDS011;10060;48.274;12.214;2023-05-31T09:20:27;7.22;;;2.75;;
19800;SDS011;10060;48.274;12.214;2023-05-31T09:23:31;7.57;;;2.92;;
19800;SDS011;10060;48.274;12.214;2023-05-31T09:26:33;5.22;;;2.85;;
19800;SDS011;10060;48.274;12.214;2023-05-31T09:29:36;6.25;;;2.65;;
19800;SDS011;10060;48.274;12.214;2023-05-31T09:32:38;7.25;;;2.95;;
19800;SDS011;10060;48.274;12.214;2023-05-31T09:35:54;4.50;;;2.83;;
19800;SDS011;10060;48.274;12.214;2023-05-31T09:39:00;6.45;;;2.88;;
19800;SDS011;10060;48.274;12.214;2023-05-31T09:42:10;5.07;;;2.90;;
19800;SDS011;10060;48.274;12.214;2023-05-31T09:45:14;7.47;;;3.08;;
19800;SDS011;10060;48.274;12.214;2023-05-31T09:48:16;5.50;;;3.40;;
19800;SDS011;10060;48.274;12.214;2023-05-31T09:51:19;6.28;;;3.17;;
19800;SDS011;10060;48.274;12.214;2023-05-31T09:54:21;8.07;;;3.80;;
19800;SDS011;10060;48.274;12.214;2023-05-31T09:57:29;7.18;;;3.40;;
19800;SDS011;10060;48.274;12.214;2023-05-31T10:00:31;9.82;;;4.03;;
19800;SDS011;10060;48.274;12.214;2023-05-31T10:03:33;6.40;;;3.50;;
19800;SDS011;10060;48.274;12.214;2023-05-31T10:06:37;10.68;;;3.55;;
19800;SDS011;10060;48.274;12.214;2023-05-31T10:09:39;11.07;;;3.88;;
19800;SDS011;10060;48.274;12.214;2023-05-31T10:12:42;10.95;;;3.60;;
19800;SDS011;10060;48.274;12.214;2023-05-31T10:15:47;8.75;;;4.20;;
19800;SDS011;10060;48.274;12.214;2023-05-31T10:18:50;7.95;;;4.38;;
19800;SDS011;10060;48.274;12.214;2023-05-31T10:21:55;7.72;;;3.20;;
19800;SDS011;10060;48.274;12.214;2023-05-31T10:25:00;6.43;;;3.83;;
19800;SDS011;10060;48.274;12.214;2023-05-31T10:28:06;8.63;;;4.03;;
19800;SDS011;10060;48.274;12.214;2023-05-31T10:31:09;6.80;;;3.97;;
19800;SDS011;10060;48.274;12.214;2023-05-31T10:34:15;9.65;;;4.70;;
19800;SDS011;10060;48.274;12.214;2023-05-31T10:37:19;11.88;;;4.45;;
19800;SDS011;10060;48.274;12.214;2023-05-31T10:40:23;7.70;;;3.83;;
19800;SDS011;10060;48.274;12.214;2023-05-31T10:43:27;8.98;;;3.80;;
19800;SDS011;10060;48.274;12.214;2023-05-31T10:46:30;6.47;;;3.65;;
19800;SDS011;10060;48.274;12.214;2023-05-31T10:49:34;9.27;;;4.15;;
19800;SDS011;10060;48.274;12.214;2023-05-31T10:52:38;7.32;;;3.58;;
19800;SDS011;10060;48.274;12.214;2023-05-31T10:55:41;6.40;;;3.78;;
19800;SDS011;10060;48.274;12.214;2023-05-31T10:58:46;9.75;;;4.30;;
19800;SDS011;10060;48.274;12.214;2023-05-31T11:01:49;7.07;;;3.75;;
19800;SDS011;10060;48.274;12.214;2023-05-31T11:04:51;8.75;;;4.13;;
19800;SDS011;10060;48.274;12.214;2023-05-31T11:07:57;9.77;;;3.78;;
19800;SDS011;10060;48.274;12.214;2023-05-31T11:14:25;11.18;;;3.72;;
19800;SDS011;10060;48.274;12.214;2023-05-31T11:17:28;9.63;;;3.80;;
19800;SDS011;10060;48.274;12.214;2023-05-31T11:20:30;10.02;;;3.60;;
19800;SDS011;10060;48.274;12.214;2023-05-31T11:23:37;6.32;;;3.53;;
19800;SDS011;10060;48.274;12.214;2023-05-31T11:26:50;6.88;;;4.05;;
19800;SDS011;10060;48.274;12.214;2023-05-31T11:29:55;7.80;;;3.60;;
19800;SDS011;10060;48.274;12.214;2023-05-31T11:32:59;11.88;;;4.28;;
19800;SDS011;10060;48.274;12.214;2023-05-31T11:36:01;9.57;;;3.85;;
19800;SDS011;10060;48.274;12.214;2023-05-31T11:39:05;8.18;;;3.95;;
19800;SDS011;10060;48.274;12.214;2023-05-31T11:42:07;6.95;;;4.15;;
19800;SDS011;10060;48.274;12.214;2023-05-31T11:45:10;7.82;;;4.03;;
19800;SDS011;10060;48.274;12.214;2023-05-31T11:51:29;8.93;;;3.63;;
19800;SDS011;10060;48.274;12.214;2023-05-31T11:54:33;8.45;;;4.00;;
19800;SDS011;10060;48.274;12.214;2023-05-31T11:57:39;9.63;;;3.60;;
19800;SDS011;10060;48.274;12.214;2023-05-31T12:00:42;9.32;;;4.03;;
19800;SDS011;10060;48.274;12.214;2023-05-31T12:03:45;5.72;;;3.58;;
19800;SDS011;10060;48.274;12.214;2023-05-31T12:06:47;9.50;;;3.80;;
19800;SDS011;10060;48.274;12.214;2023-05-31T12:09:50;8.98;;;3.40;;
19800;SDS011;10060;48.274;12.214;2023-05-31T12:12:53;7.32;;;3.33;;
19800;SDS011;10060;48.274;12.214;2023-05-31T12:15:55;6.95;;;3.58;;
19800;SDS011;10060;48.274;12.214;2023-05-31T12:18:57;9.73;;;3.83;;
19800;SDS011;10060;48.274;12.214;2023-05-31T12:22:00;17.70;;;4.07;;
19800;SDS011;10060;48.274;12.214;2023-05-31T12:25:04;7.65;;;3.85;;
19800;SDS011;10060;48.274;12.214;2023-05-31T12:28:07;11.95;;;3.58;;
19800;SDS011;10060;48.274;12.214;2023-05-31T12:31:09;8.25;;;3.63;;
19800;SDS011;10060;48.274;12.214;2023-05-31T12:34:11;6.53;;;3.25;;
19800;SDS011;10060;48.274;12.214;2023-05-31T12:37:13;8.27;;;3.70;;
19800;SDS011;10060;48.274;12.214;2023-05-31T12:40:17;8.60;;;3.38;;
19800;SDS011;10060;48.274;12.214;2023-05-31T12:43:20;12.52;;;3.40;;
19800;SDS011;10060;48.274;12.214;2023-05-31T12:46:22;10.35;;;3.78;;
19800;SDS011;10060;48.274;12.214;2023-05-31T12:49:25;5.88;;;3.38;;
19800;SDS011;10060;48.274;12.214;2023-05-31T12:52:28;6.28;;;3.05;;
19800;SDS011;10060;48.274;12.214;2023-05-31T12:55:32;10.25;;;3.40;;
19800;SDS011;10060;48.274;12.214;2023-05-31T12:58:34;8.43;;;3.25;;
19800;SDS011;10060;48.274;12.214;2023-05-31T13:01:36;18.08;;;3.53;;
19800;SDS011;10060;48.274;12.214;2023-05-31T13:04:40;7.93;;;3.10;;
19800;SDS011;10060;48.274;12.214;2023-05-31T13:07:42;9.77;;;3.17;;
19800;SDS011;10060;48.274;12.214;2023-05-31T13:10:47;4.93;;;2.90;;
19800;SDS011;10060;48.274;12.214;2023-05-31T13:13:49;16.33;;;3.55;;
19800;SDS011;10060;48.274;12.214;2023-05-31T13:16:52;6.28;;;3.15;;
19800;SDS011;10060;48.274;12.214;2023-05-31T13:19:54;7.63;;;3.30;;
19800;SDS011;10060;48.274;12.214;2023-05-31T13:22:57;9.43;;;2.85;;
19800;SDS011;10060;48.274;12.214;2023-05-31T13:26:00;5.32;;;3.03;;
19800;SDS011;10060;48.274;12.214;2023-05-31T13:29:03;6.97;;;3.25;;
19800;SDS011;10060;48.274;12.214;2023-05-31T13:32:05;6.60;;;3.45;;
19800;SDS011;10060;48.274;12.214;2023-05-31T13:35:08;6.97;;;3.45;;
19800;SDS011;10060;48.274;12.214;2023-05-31T13:38:12;7.75;;;2.97;;
19800;SDS011;10060;48.274;12.214;2023-05-31T13:41:15;4.40;;;3.42;;
19800;SDS011;10060;48.274;12.214;2023-05-31T13:44:17;6.80;;;3.30;;
19800;SDS011;10060;48.274;12.214;2023-05-31T13:47:19;6.85;;;3.25;;
19800;SDS011;10060;48.274;12.214;2023-05-31T13:50:22;5.65;;;3.20;;
19800;SDS011;10060;48.274;12.214;2023-05-31T13:53:24;4.82;;;3.33;;
19800;SDS011;10060;48.274;12.214;2023-05-31T13:56:27;5.18;;;2.92;;
19800;SDS011;10060;48.274;12.214;2023-05-31T13:59:30;5.25;;;3.38;;
19800;SDS011;10060;48.274;12.214;2023-05-31T14:02:32;8.57;;;3.50;;
19800;SDS011;10060;48.274;12.214;2023-05-31T14:05:35;7.80;;;3.42;;
19800;SDS011;10060;48.274;12.214;2023-05-31T14:08:37;15.25;;;3.45;;
19800;SDS011;10060;48.274;12.214;2023-05-31T14:11:41;12.07;;;3.97;;
19800;SDS011;10060;48.274;12.214;2023-05-31T14:14:43;8.85;;;3.35;;
19800;SDS011;10060;48.274;12.214;2023-05-31T14:17:46;9.23;;;3.25;;
19800;SDS011;10060;48.274;12.214;2023-05-31T14:20:48;8.20;;;3.70;;
19800;SDS011;10060;48.274;12.214;2023-05-31T14:23:51;3.92;;;3.20;;
19800;SDS011;10060;48.274;12.214;2023-05-31T14:26:54;6.95;;;3.38;;
19800;SDS011;10060;48.274;12.214;2023-05-31T14:29:57;5.13;;;3.30;;
19800;SDS011;10060;48.274;12.214;2023-05-31T14:32:59;5.90;;;4.00;;
19800;SDS011;10060;48.274;12.214;2023-05-31T14:36:01;5.63;;;3.30;;
19800;SDS011;10060;48.274;12.214;2023-05-31T14:39:03;5.38;;;3.10;;
19800;SDS011;10060;48.274;12.214;2023-05-31T14:42:07;7.85;;;3.40;;
19800;SDS011;10060;48.274;12.214;2023-05-31T14:45:09;6.35;;;3.55;;
19800;SDS011;10060;48.274;12.214;2023-05-31T14:48:11;6.15;;;3.75;;
19800;SDS011;10060;48.274;12.214;2023-05-31T14:51:13;8.93;;;3.83;;
19800;SDS011;10060;48.274;12.214;2023-05-31T14:54:16;15.55;;;3.83;;
19800;SDS011;10060;48.274;12.214;2023-05-31T14:57:19;6.90;;;3.40;;
19800;SDS011;10060;48.274;12.214;2023-05-31T15:00:21;8.05;;;3.42;;
19800;SDS011;10060;48.274;12.214;2023-05-31T15:03:23;7.00;;;3.53;;
19800;SDS011;10060;48.274;12.214;2023-05-31T15:06:25;6.97;;;3.50;;
19800;SDS011;10060;48.274;12.214;2023-05-31T15:09:27;5.78;;;3.38;;
19800;SDS011;10060;48.274;12.214;2023-05-31T15:12:31;7.28;;;3.22;;
19800;SDS011;10060;48.274;12.214;2023-05-31T15:15:33;5.43;;;3.42;;
19800;SDS011;10060;48.274;12.214;2023-05-31T15:18:37;7.78;;;3.58;;
19800;SDS011;10060;48.274;12.214;2023-05-31T15:21:39;8.32;;;3.60;;
19800;SDS011;10060;48.274;12.214;2023-05-31T15:24:41;10.40;;;4.13;;
19800;SDS011;10060;48.274;12.214;2023-05-31T15:27:45;11.38;;;4.28;;
19800;SDS011;10060;48.274;12.214;2023-05-31T15:30:47;8.65;;;3.70;;
19800;SDS011;10060;48.274;12.214;2023-05-31T15:33:49;5.65;;;3.47;;
19800;SDS011;10060;48.274;12.214;2023-05-31T15:36:51;4.45;;;3.08;;
19800;SDS011;10060;48.274;12.214;2023-05-31T15:39:53;5.82;;;3.63;;
19800;SDS011;10060;48.274;12.214;2023-05-31T15:42:57;4.85;;;3.42;;
19800;SDS011;10060;48.274;12.214;2023-05-31T15:45:59;8.60;;;4.28;;
19800;SDS011;10060;48.274;12.214;2023-05-31T15:49:01;5.78;;;3.55;;
19800;SDS011;10060;48.274;12.214;2023-05-31T15:52:04;7.40;;;3.78;;
19800;SDS011;10060;48.274;12.214;2023-05-31T15:55:06;5.38;;;4.10;;
19800;SDS011;10060;48.274;12.214;2023-05-31T15:58:10;6.90;;;4.10;;
19800;SDS011;10060;48.274;12.214;2023-05-31T16:01:12;7.68;;;3.88;;
19800;SDS011;10060;48.274;12.214;2023-05-31T16:04:15;5.38;;;3.55;;
19800;SDS011;10060;48.274;12.214;2023-05-31T16:07:17;8.38;;;3.95;;
19800;SDS011;10060;48.274;12.214;2023-05-31T16:10:20;7.55;;;3.70;;
19800;SDS011;10060;48.274;12.214;2023-05-31T16:13:23;5.75;;;3.60;;
19800;SDS011;10060;48.274;12.214;2023-05-31T16:16:25;6.80;;;3.80;;
19800;SDS011;10060;48.274;12.214;2023-05-31T16:19:27;7.57;;;3.53;;
19800;SDS011;10060;48.274;12.214;2023-05-31T16:22:30;7.53;;;4.05;;
19800;SDS011;10060;48.274;12.214;2023-05-31T16:25:32;6.50;;;3.38;;
19800;SDS011;10060;48.274;12.214;2023-05-31T16:28:35;8.00;;;3.83;;
19800;SDS011;10060;48.274;12.214;2023-05-31T16:31:37;5.95;;;3.95;;
19800;SDS011;10060;48.274;12.214;2023-05-31T16:34:39;5.55;;;3.47;;
19800;SDS011;10060;48.274;12.214;2023-05-31T16:37:41;7.20;;;4.07;;
19800;SDS011;10060;48.274;12.214;2023-05-31T16:40:44;10.60;;;4.10;;
19800;SDS011;10060;48.274;12.214;2023-05-31T16:43:47;6.35;;;4.00;;
19800;SDS011;10060;48.274;12.214;2023-05-31T16:46:50;8.80;;;4.55;;
19800;SDS011;10060;48.274;12.214;2023-05-31T16:49:53;7.90;;;4.18;;
19800;SDS011;10060;48.274;12.214;2023-05-31T16:52:55;10.13;;;4.35;;
19800;SDS011;10060;48.274;12.214;2023-05-31T16:55:57;5.40;;;3.70;;
19800;SDS011;10060;48.274;12.214;2023-05-31T16:59:01;10.27;;;4.70;;
19800;SDS011;10060;48.274;12.214;2023-05-31T17:02:03;6.78;;;4.20;;
19800;SDS011;10060;48.274;12.214;2023-05-31T17:05:05;7.00;;;4.10;;
19800;SDS011;10060;48.274;12.214;2023-05-31T17:08:08;8.57;;;4.28;;
19800;SDS011;10060;48.274;12.214;2023-05-31T17:11:11;8.15;;;4.32;;
19800;SDS011;10060;48.274;12.214;2023-05-31T17:14:15;7.60;;;4.10;;
19800;SDS011;10060;48.274;12.214;2023-05-31T17:17:17;9.00;;;4.70;;
19800;SDS011;10060;48.274;12.214;2023-05-31T17:20:19;7.25;;;4.32;;
19800;SDS011;10060;48.274;12.214;2023-05-31T17:23:21;6.10;;;4.07;;
19800;SDS011;10060;48.274;12.214;2023-05-31T17:26:23;8.02;;;4.28;;
19800;SDS011;10060;48.274;12.214;2023-05-31T17:29:27;6.22;;;4.05;;
19800;SDS011;10060;48.274;12.214;2023-05-31T17:32:29;8.75;;;4.28;;
19800;SDS011;10060;48.274;12.214;2023-05-31T17:35:31;6.43;;;4.00;;
19800;SDS011;10060;48.274;12.214;2023-05-31T17:38:33;7.70;;;4.72;;
19800;SDS011;10060;48.274;12.214;2023-05-31T17:41:35;10.32;;;4.15;;
19800;SDS011;10060;48.274;12.214;2023-05-31T17:44:39;6.53;;;4.28;;
19800;SDS011;10060;48.274;12.214;2023-05-31T17:47:41;6.20;;;4.30;;
19800;SDS011;10060;48.274;12.214;2023-05-31T17:50:43;7.20;;;4.45;;
19800;SDS011;10060;48.274;12.214;2023-05-31T17:53:45;10.77;;;4.50;;
19800;SDS011;10060;48.274;12.214;2023-05-31T17:56:47;11.93;;;4.05;;
19800;SDS011;10060;48.274;12.214;2023-05-31T17:59:52;9.82;;;4.03;;
19800;SDS011;10060;48.274;12.214;2023-05-31T18:02:54;6.55;;;4.57;;
19800;SDS011;10060;48.274;12.214;2023-05-31T18:05:56;9.90;;;4.65;;
19800;SDS011;10060;48.274;12.214;2023-05-31T18:08:58;8.02;;;4.43;;
19800;SDS011;10060;48.274;12.214;2023-05-31T18:12:00;7.95;;;4.63;;